createdAt,value
2022-12-16T00:00:19.299Z,10.40
2022-12-16T00:02:46.507Z,11.38
2022-12-16T00:05:13.730Z,10.75
2022-12-16T00:07:40.893Z,11.82
2022-12-16T00:10:09.830Z,11.80
2022-12-16T00:12:37.137Z,10.60
2022-12-16T00:15:04.804Z,13.20
2022-12-16T00:17:31.938Z,11.50
2022-12-16T00:19:59.029Z,11.93
2022-12-16T00:23:01.743Z,10.65
2022-12-16T00:25:28.951Z,10.45
2022-12-16T00:28:00.531Z,11.93
2022-12-16T00:30:27.841Z,11.25
2022-12-16T00:32:54.940Z,11.80
2022-12-16T00:35:22.030Z,11.88
2022-12-16T00:37:49.186Z,11.60
2022-12-16T00:40:16.348Z,10.60
2022-12-16T00:42:43.442Z,11.52
2022-12-16T00:45:10.755Z,10.65
2022-12-16T00:47:42.433Z,10.45
2022-12-16T00:50:11.540Z,10.73
2022-12-16T00:52:38.709Z,9.80
2022-12-16T00:55:06.190Z,9.88
2022-12-16T00:57:33.629Z,11.13
2022-12-16T01:00:00.805Z,11.75
2022-12-16T01:02:28.019Z,10.07
2022-12-16T01:04:55.186Z,9.48
2022-12-16T01:07:22.394Z,10.82
2022-12-16T01:09:50.148Z,8.88
2022-12-16T01:12:17.556Z,9.68
2022-12-16T01:14:44.816Z,9.80
2022-12-16T01:17:13.912Z,8.80
2022-12-16T01:19:41.082Z,9.20
2022-12-16T01:22:08.209Z,9.73
2022-12-16T01:24:36.806Z,8.10
2022-12-16T01:27:04.082Z,8.65
2022-12-16T01:29:31.369Z,10.20
2022-12-16T01:31:58.628Z,9.00
2022-12-16T01:34:25.822Z,9.38
2022-12-16T01:36:53.037Z,9.07
2022-12-16T01:39:20.153Z,8.98
2022-12-16T01:41:47.481Z,9.48
2022-12-16T01:44:26.295Z,8.63
2022-12-16T01:47:05.025Z,10.55
2022-12-16T01:49:42.551Z,9.10
2022-12-16T01:52:16.544Z,9.70
2022-12-16T01:54:48.356Z,9.43
2022-12-16T01:59:51.615Z,9.80
2022-12-16T02:02:20.573Z,9.82
2022-12-16T02:05:06.780Z,10.63
2022-12-16T02:07:34.000Z,11.18
2022-12-16T02:10:01.175Z,11.15
2022-12-16T02:12:44.729Z,10.13
2022-12-16T02:15:42.999Z,10.13
2022-12-16T02:18:14.290Z,9.95
2022-12-16T02:20:47.015Z,9.77
2022-12-16T02:23:51.433Z,10.68
2022-12-16T02:26:55.706Z,10.05
2022-12-16T02:29:47.501Z,9.82
2022-12-16T02:32:48.175Z,10.82
2022-12-16T02:35:28.347Z,11.70
2022-12-16T02:38:13.644Z,9.68
2022-12-16T02:40:51.840Z,10.38
2022-12-16T02:43:47.618Z,9.90
2022-12-16T02:46:15.271Z,11.52
2022-12-16T02:48:42.430Z,10.52
2022-12-16T02:51:10.491Z,9.32
2022-12-16T02:53:40.459Z,8.45
2022-12-16T02:56:25.223Z,10.18
2022-12-16T02:59:23.307Z,9.90
2022-12-16T03:02:15.325Z,11.75
2022-12-16T03:04:48.418Z,9.68
2022-12-16T03:07:20.033Z,9.98
2022-12-16T03:09:48.365Z,9.38
2022-12-16T03:12:18.663Z,10.25
2022-12-16T03:14:50.134Z,9.98
2022-12-16T03:17:22.512Z,10.00
2022-12-16T03:20:04.652Z,10.32
2022-12-16T03:25:01.464Z,9.35
2022-12-16T03:27:46.660Z,8.85
2022-12-16T03:30:18.002Z,9.77
2022-12-16T03:33:03.067Z,10.88
2022-12-16T03:35:57.161Z,8.15
2022-12-16T03:38:26.228Z,8.27
2022-12-16T03:40:54.600Z,9.57
2022-12-16T03:43:23.215Z,9.30
2022-12-16T03:45:55.244Z,9.43
2022-12-16T03:48:25.172Z,10.13
2022-12-16T03:50:52.505Z,8.52
2022-12-16T03:53:19.655Z,8.80
2022-12-16T03:55:46.760Z,8.90
2022-12-16T03:58:13.842Z,9.95
2022-12-16T04:00:40.900Z,8.90
2022-12-16T04:03:08.223Z,9.30
2022-12-16T04:05:35.639Z,9.18
2022-12-16T04:08:02.886Z,9.45
2022-12-16T04:10:49.488Z,10.43
2022-12-16T04:13:35.578Z,8.55
2022-12-16T04:16:21.536Z,9.32
2022-12-16T04:19:07.345Z,9.40
2022-12-16T04:21:54.606Z,9.25
2022-12-16T04:24:30.474Z,10.82
2022-12-16T04:27:16.429Z,8.75
2022-12-16T04:30:03.065Z,8.50
2022-12-16T04:32:52.340Z,8.45
2022-12-16T04:35:38.679Z,8.75
2022-12-16T04:38:38.018Z,10.15
2022-12-16T04:41:23.722Z,10.20
2022-12-16T04:44:09.584Z,9.00
2022-12-16T04:46:55.684Z,8.75
2022-12-16T04:49:41.282Z,8.75
2022-12-16T04:52:27.128Z,10.07
2022-12-16T04:55:12.862Z,8.23
2022-12-16T04:57:58.590Z,7.65
2022-12-16T05:00:44.245Z,7.82
2022-12-16T05:03:30.368Z,8.95
2022-12-16T05:06:16.394Z,9.23
2022-12-16T05:09:02.013Z,8.18
2022-12-16T05:11:47.795Z,8.18
2022-12-16T05:14:33.551Z,9.23
2022-12-16T05:17:19.093Z,7.85
2022-12-16T05:20:04.833Z,8.18
2022-12-16T05:22:53.197Z,9.35
2022-12-16T05:25:39.459Z,8.00
2022-12-16T05:28:25.133Z,8.05
2022-12-16T05:31:11.216Z,8.27
2022-12-16T05:33:57.041Z,8.05
2022-12-16T05:36:42.589Z,8.55
2022-12-16T05:39:28.484Z,8.80
2022-12-16T05:42:14.906Z,7.85
2022-12-16T05:45:00.494Z,9.25
2022-12-16T05:47:46.494Z,9.18
2022-12-16T05:50:32.249Z,10.68
2022-12-16T05:53:27.906Z,9.98
2022-12-16T05:56:13.440Z,8.88
2022-12-16T05:58:58.982Z,9.85
2022-12-16T06:01:44.633Z,7.63
2022-12-16T06:04:30.541Z,9.77
2022-12-16T06:07:16.227Z,7.88
2022-12-16T06:10:02.065Z,8.45
2022-12-16T06:12:47.552Z,9.68
2022-12-16T06:15:33.306Z,9.63
2022-12-16T06:18:18.714Z,10.52
2022-12-16T06:21:04.317Z,8.82
2022-12-16T06:23:49.860Z,9.02
2022-12-16T06:26:35.331Z,10.52
2022-12-16T06:29:21.070Z,10.68
2022-12-16T06:32:06.670Z,9.60
2022-12-16T06:34:52.239Z,12.20
2022-12-16T06:37:37.827Z,9.77
2022-12-16T06:40:23.963Z,9.52
2022-12-16T06:43:09.602Z,9.13
2022-12-16T06:45:55.088Z,10.07
2022-12-16T06:48:40.905Z,9.38
2022-12-16T06:51:26.510Z,10.05
2022-12-16T06:54:12.081Z,9.68
2022-12-16T06:56:58.303Z,9.23
2022-12-16T06:59:44.198Z,8.35
2022-12-16T07:02:30.906Z,9.55
2022-12-16T07:05:17.016Z,9.48
2022-12-16T07:08:07.231Z,9.88
2022-12-16T07:10:52.616Z,11.68
2022-12-16T07:13:41.554Z,11.18
2022-12-16T07:16:27.215Z,11.55
2022-12-16T07:19:12.773Z,12.05
2022-12-16T07:21:58.331Z,10.82
2022-12-16T07:24:43.814Z,11.85
2022-12-16T07:27:29.521Z,11.55
2022-12-16T07:30:15.546Z,12.27
2022-12-16T07:33:01.057Z,10.65
2022-12-16T07:35:46.673Z,10.52
2022-12-16T07:38:32.154Z,11.45
2022-12-16T07:41:17.610Z,11.95
2022-12-16T07:44:03.288Z,11.65
2022-12-16T07:46:48.976Z,11.70
2022-12-16T07:49:34.850Z,12.02
2022-12-16T07:52:20.665Z,12.40
2022-12-16T07:55:06.163Z,11.35
2022-12-16T07:57:51.899Z,12.05
2022-12-16T08:00:37.893Z,11.90
2022-12-16T08:03:23.430Z,12.50
2022-12-16T08:06:09.142Z,12.02
2022-12-16T08:08:54.543Z,12.30
2022-12-16T08:11:40.000Z,13.30
2022-12-16T08:14:25.342Z,11.82
2022-12-16T08:17:10.895Z,13.88
2022-12-16T08:19:56.740Z,14.88
2022-12-16T08:22:42.372Z,14.52
2022-12-16T08:25:28.195Z,12.60
2022-12-16T08:28:15.020Z,13.18
2022-12-16T08:31:01.324Z,15.13
2022-12-16T08:33:47.291Z,14.70
2022-12-16T08:36:32.761Z,12.65
2022-12-16T08:39:18.332Z,14.18
2022-12-16T08:42:04.206Z,13.85
2022-12-16T08:44:49.901Z,14.48
2022-12-16T08:47:35.794Z,15.27
2022-12-16T08:50:21.754Z,15.70
2022-12-16T08:53:07.335Z,15.57
2022-12-16T08:55:55.750Z,14.85
2022-12-16T08:58:41.643Z,13.43
2022-12-16T09:01:27.342Z,15.68
2022-12-16T09:04:13.057Z,12.43
2022-12-16T09:06:58.861Z,13.85
2022-12-16T09:09:44.819Z,14.10
2022-12-16T09:12:41.224Z,15.18
2022-12-16T09:15:27.720Z,14.73
2022-12-16T09:18:14.431Z,14.15
2022-12-16T09:21:00.178Z,15.73
2022-12-16T09:23:45.776Z,14.07
2022-12-16T09:26:31.543Z,13.95
2022-12-16T09:29:17.476Z,13.65
2022-12-16T09:32:03.477Z,15.85
2022-12-16T09:34:49.306Z,17.88
2022-12-16T09:37:34.924Z,15.50
2022-12-16T09:40:20.902Z,18.10
2022-12-16T09:43:46.173Z,17.08
2022-12-16T09:46:44.110Z,17.60
2022-12-16T09:50:06.648Z,16.92
2022-12-16T09:53:01.268Z,15.60
2022-12-16T09:56:00.175Z,16.38
2022-12-16T09:58:51.044Z,17.30
2022-12-16T10:01:36.715Z,17.40
2022-12-16T10:04:24.237Z,18.85
2022-12-16T10:07:17.422Z,18.65
2022-12-16T10:10:24.745Z,19.02
2022-12-16T10:13:50.523Z,18.73
2022-12-16T10:16:56.212Z,18.85
2022-12-16T10:19:45.217Z,20.23
2022-12-16T10:22:36.882Z,16.88
2022-12-16T10:25:25.584Z,22.33
2022-12-16T10:28:19.148Z,19.80
2022-12-16T10:31:04.678Z,21.50
2022-12-16T10:33:50.378Z,19.10
2022-12-16T10:36:40.728Z,21.70
2022-12-16T10:39:36.477Z,22.45
2022-12-16T10:42:23.066Z,21.05
2022-12-16T10:45:16.086Z,22.15
2022-12-16T10:48:01.905Z,20.88
2022-12-16T10:50:47.861Z,20.50
2022-12-16T10:53:37.476Z,21.75
2022-12-16T10:57:07.812Z,19.45
2022-12-16T10:59:59.665Z,21.35
2022-12-16T11:02:47.610Z,19.35
2022-12-16T11:05:50.633Z,19.42
2022-12-16T11:09:02.755Z,18.83
2022-12-16T11:11:49.853Z,19.20
2022-12-16T11:17:55.916Z,21.92
2022-12-16T11:20:44.493Z,22.33
2022-12-16T11:23:41.603Z,21.63
2022-12-16T11:26:36.729Z,21.23
2022-12-16T11:29:34.977Z,19.45
2022-12-16T11:32:29.546Z,21.73
2022-12-16T11:35:19.046Z,20.52
2022-12-16T11:38:05.462Z,18.27
2022-12-16T11:40:52.652Z,16.73
2022-12-16T11:43:39.296Z,18.83
2022-12-16T11:46:30.512Z,17.00
2022-12-16T11:49:24.981Z,17.02
2022-12-16T11:59:13.151Z,21.00
2022-12-16T12:02:18.064Z,20.73
2022-12-16T12:05:06.591Z,18.25
2022-12-16T12:07:55.681Z,19.10
2022-12-16T12:11:05.705Z,19.75
2022-12-16T12:13:57.678Z,18.95
2022-12-16T12:16:48.628Z,15.00
2022-12-16T12:19:45.209Z,20.05
2022-12-16T12:22:46.487Z,20.15
2022-12-16T12:26:04.177Z,20.65
2022-12-16T12:29:09.387Z,22.13
2022-12-16T12:32:18.038Z,20.80
2022-12-16T12:35:16.137Z,21.67
2022-12-16T12:38:07.720Z,20.45
2022-12-16T12:41:25.214Z,21.40
2022-12-16T12:44:16.801Z,21.67
2022-12-16T12:47:24.532Z,20.75
2022-12-16T12:50:31.459Z,23.27
2022-12-16T12:53:38.373Z,21.90
2022-12-16T12:57:07.835Z,23.27
2022-12-16T13:00:08.563Z,21.77
2022-12-16T13:03:18.887Z,21.10
2022-12-16T13:06:05.597Z,21.63
2022-12-16T13:08:51.194Z,22.02
2022-12-16T13:11:37.441Z,21.35
2022-12-16T13:14:49.076Z,24.13
2022-12-16T13:17:42.224Z,22.25
2022-12-16T13:20:51.410Z,23.33
2022-12-16T13:23:46.340Z,23.85
2022-12-16T13:26:34.605Z,21.42
2022-12-16T13:29:31.767Z,21.38
2022-12-16T13:32:22.174Z,22.60
2022-12-16T13:35:35.505Z,22.08
2022-12-16T13:38:24.868Z,23.58
2022-12-16T13:41:24.307Z,20.23
2022-12-16T13:44:12.088Z,21.70
2022-12-16T13:47:09.887Z,22.80
2022-12-16T13:49:55.506Z,22.95
2022-12-16T13:53:07.167Z,22.00
2022-12-16T13:56:12.849Z,21.00
2022-12-16T13:59:03.228Z,19.83
2022-12-16T14:02:20.169Z,23.25
2022-12-16T14:05:11.717Z,18.38
2022-12-16T14:07:59.248Z,21.93
2022-12-16T14:10:59.081Z,20.73
2022-12-16T14:13:47.532Z,22.55
2022-12-16T14:16:55.606Z,21.25
2022-12-16T14:20:20.483Z,23.50
2022-12-16T14:23:54.717Z,23.13
2022-12-16T14:26:32.615Z,21.77
2022-12-16T14:29:20.282Z,21.85
2022-12-16T14:32:05.945Z,21.77
2022-12-16T14:34:55.610Z,22.27
2022-12-16T14:37:51.923Z,22.23
2022-12-16T14:40:40.914Z,18.85
2022-12-16T14:43:39.674Z,21.95
2022-12-16T14:46:41.215Z,19.90
2022-12-16T14:49:42.860Z,23.10
2022-12-16T14:52:35.745Z,22.83
2022-12-16T14:55:31.230Z,20.88
2022-12-16T14:58:37.184Z,21.60
2022-12-16T15:01:37.962Z,19.52
2022-12-16T15:04:30.491Z,22.25
2022-12-16T15:07:16.645Z,20.23
2022-12-16T15:10:11.061Z,23.25
2022-12-16T15:13:01.621Z,20.25
2022-12-16T15:15:52.104Z,17.83
2022-12-16T15:18:49.188Z,19.35
2022-12-16T15:21:35.011Z,17.90
2022-12-16T15:24:20.856Z,20.75
2022-12-16T15:27:08.963Z,19.95
2022-12-16T15:29:58.063Z,18.48
2022-12-16T15:32:43.974Z,20.25
2022-12-16T15:35:42.310Z,20.30
2022-12-16T15:38:33.924Z,21.70
2022-12-16T15:41:21.761Z,18.60
2022-12-16T15:44:08.185Z,18.95
2022-12-16T15:46:55.642Z,20.90
2022-12-16T15:49:52.845Z,20.38
2022-12-16T15:52:56.920Z,18.27
2022-12-16T15:56:04.489Z,18.23
2022-12-16T15:58:55.069Z,18.67
2022-12-16T16:01:43.860Z,18.67
2022-12-16T16:04:38.618Z,18.40
2022-12-16T16:07:37.283Z,19.85
2022-12-16T16:10:41.328Z,22.80
2022-12-16T16:13:27.755Z,21.92
2022-12-16T16:16:13.991Z,22.63
2022-12-16T16:19:01.071Z,22.65
2022-12-16T16:21:48.367Z,21.52
2022-12-16T16:24:33.907Z,20.00
2022-12-16T16:27:21.383Z,21.27
2022-12-16T16:30:07.413Z,22.75
2022-12-16T16:32:53.302Z,19.38
2022-12-16T16:35:39.111Z,17.17
2022-12-16T16:38:24.816Z,22.40
2022-12-16T16:41:10.509Z,18.23
2022-12-16T16:43:55.995Z,18.20
2022-12-16T16:46:50.710Z,18.45
2022-12-16T16:49:59.326Z,19.45
2022-12-16T16:52:46.194Z,20.00
2022-12-16T16:55:34.562Z,22.40
2022-12-16T16:58:23.993Z,24.38
2022-12-16T17:01:09.951Z,28.92
2022-12-16T17:03:55.582Z,25.48
2022-12-16T17:06:41.083Z,23.10
2022-12-16T17:09:26.715Z,23.83
2022-12-16T17:12:12.613Z,23.42
2022-12-16T17:14:58.126Z,23.42
2022-12-16T17:17:43.783Z,19.95
2022-12-16T17:20:33.511Z,24.33
2022-12-16T17:23:19.010Z,24.98
2022-12-16T17:26:05.002Z,22.83
2022-12-16T17:28:50.394Z,22.80
2022-12-16T17:31:36.105Z,24.02
2022-12-16T17:34:21.701Z,20.65
2022-12-16T17:37:07.536Z,23.55
2022-12-16T17:39:53.150Z,22.10
2022-12-16T17:42:44.685Z,24.75
2022-12-16T17:45:32.087Z,21.15
2022-12-16T17:48:17.790Z,21.60
2022-12-16T17:51:03.226Z,25.42
2022-12-16T17:53:57.087Z,22.77
2022-12-16T17:56:44.348Z,20.92
2022-12-16T17:59:30.090Z,24.33
2022-12-16T18:02:15.758Z,25.23
2022-12-16T18:05:01.371Z,23.23
2022-12-16T18:07:47.026Z,24.92
2022-12-16T18:10:32.527Z,22.38
2022-12-16T18:13:18.317Z,25.25
2022-12-16T18:16:11.061Z,25.23
2022-12-16T18:18:56.751Z,25.13
2022-12-16T18:21:42.708Z,25.88
2022-12-16T18:24:28.399Z,24.80
2022-12-16T18:27:13.902Z,26.00
2022-12-16T18:29:59.410Z,23.13
2022-12-16T18:32:45.189Z,23.48
2022-12-16T18:35:30.549Z,26.17
2022-12-16T18:38:16.691Z,24.40
2022-12-16T18:41:02.499Z,26.25
2022-12-16T18:43:48.167Z,29.98
2022-12-16T18:46:33.985Z,28.95
2022-12-16T18:49:19.628Z,26.15
2022-12-16T18:52:05.413Z,24.70
2022-12-16T18:54:51.441Z,26.13
2022-12-16T18:57:39.811Z,25.38
2022-12-16T19:00:26.799Z,23.85
2022-12-16T19:03:12.961Z,25.55
2022-12-16T19:05:58.646Z,27.27
2022-12-16T19:08:44.271Z,28.50
2022-12-16T19:11:29.602Z,30.30
2022-12-16T19:14:15.251Z,28.15
2022-12-16T19:17:00.987Z,27.90
2022-12-16T19:19:46.380Z,27.20
2022-12-16T19:22:32.069Z,23.70
2022-12-16T19:25:17.865Z,22.85
2022-12-16T19:28:03.499Z,26.50
2022-12-16T19:30:49.378Z,25.40
2022-12-16T19:33:35.074Z,26.48
2022-12-16T19:36:20.983Z,23.70
2022-12-16T19:39:06.586Z,28.55
2022-12-16T19:41:52.334Z,25.60
2022-12-16T19:44:39.023Z,27.42
2022-12-16T19:47:25.099Z,32.03
2022-12-16T19:50:10.968Z,28.90
2022-12-16T19:52:56.747Z,25.83
2022-12-16T19:55:42.411Z,25.73
2022-12-16T19:58:28.060Z,21.77
2022-12-16T20:01:13.997Z,23.15
2022-12-16T20:03:59.842Z,26.60
2022-12-16T20:06:45.171Z,25.92
2022-12-16T20:09:30.721Z,23.45
2022-12-16T20:12:17.296Z,27.23
2022-12-16T20:15:02.703Z,33.33
2022-12-16T20:17:48.350Z,27.25
2022-12-16T20:20:34.076Z,29.38
2022-12-16T20:23:19.706Z,24.23
2022-12-16T20:26:16.545Z,29.73
2022-12-16T20:29:02.708Z,30.20
2022-12-16T20:31:48.507Z,29.40
2022-12-16T20:34:34.031Z,27.50
2022-12-16T20:37:19.679Z,28.77
2022-12-16T20:40:05.443Z,28.50
2022-12-16T20:42:51.429Z,29.65
2022-12-16T20:45:56.846Z,29.17
2022-12-16T20:48:42.872Z,29.52
2022-12-16T20:51:28.710Z,28.75
2022-12-16T20:54:14.336Z,29.42
2022-12-16T20:56:59.768Z,29.30
2022-12-16T20:59:45.274Z,29.48
2022-12-16T21:05:37.822Z,32.55
2022-12-16T21:08:23.675Z,28.02
2022-12-16T21:11:09.244Z,29.10
2022-12-16T21:13:56.432Z,29.13
2022-12-16T21:14:42.735Z,28.70
2022-12-16T21:16:42.567Z,29.30
2022-12-16T21:19:33.357Z,30.35
2022-12-16T21:22:20.073Z,28.08
2022-12-16T21:25:05.643Z,27.20
2022-12-16T21:27:51.493Z,27.25
2022-12-16T21:30:38.549Z,25.52
2022-12-16T21:33:24.198Z,27.98
2022-12-16T21:36:11.493Z,28.45
2022-12-16T21:38:57.076Z,23.23
2022-12-16T21:41:42.710Z,24.88
2022-12-16T21:44:28.429Z,28.10
2022-12-16T21:47:14.240Z,25.92
2022-12-16T21:49:59.995Z,31.23
2022-12-16T21:52:45.781Z,26.58
2022-12-16T21:55:31.344Z,25.48
2022-12-16T21:58:16.991Z,23.17
2022-12-16T22:01:02.900Z,24.20
2022-12-16T22:03:56.759Z,25.40
2022-12-16T22:06:48.240Z,25.38
2022-12-16T22:09:34.682Z,25.45
2022-12-16T22:12:20.750Z,23.25
2022-12-16T22:15:06.553Z,25.10
2022-12-16T22:17:57.956Z,22.70
2022-12-16T22:20:44.570Z,26.42
2022-12-16T22:23:30.142Z,22.67
2022-12-16T22:26:17.543Z,23.85
2022-12-16T22:29:03.332Z,21.60
2022-12-16T22:31:49.163Z,21.77
2022-12-16T22:34:35.055Z,24.25
2022-12-16T22:37:21.185Z,22.70
2022-12-16T22:40:06.887Z,17.00
2022-12-16T22:42:52.351Z,21.52
2022-12-16T22:45:37.792Z,18.23
2022-12-16T22:48:23.892Z,18.33
2022-12-16T22:51:09.661Z,18.80
2022-12-16T22:53:55.190Z,17.15
2022-12-16T22:56:42.151Z,17.20
2022-12-16T22:59:28.248Z,17.83
2022-12-16T23:02:13.791Z,17.52
2022-12-16T23:04:59.718Z,18.98
2022-12-16T23:07:45.100Z,19.67
2022-12-16T23:10:30.696Z,18.90
2022-12-16T23:13:16.476Z,17.45
2022-12-16T23:16:02.342Z,20.80
2022-12-16T23:18:48.126Z,15.25
2022-12-16T23:21:37.792Z,16.30
2022-12-16T23:24:23.747Z,15.02
2022-12-16T23:27:09.310Z,14.40
2022-12-16T23:32:31.396Z,11.70
2022-12-16T23:33:00.732Z,12.32
2022-12-16T23:35:46.202Z,12.43
2022-12-16T23:38:31.738Z,12.10
2022-12-16T23:41:17.780Z,11.45
2022-12-16T23:44:03.702Z,13.25
2022-12-16T23:46:49.558Z,14.45
2022-12-16T23:49:35.561Z,15.95
2022-12-16T23:52:21.174Z,15.43
2022-12-16T23:55:06.570Z,16.42
2022-12-16T23:57:52.158Z,17.95
